createdAt,value
2023-03-02T00:00:31.890Z,18.82
2023-03-02T00:03:03.254Z,18.78
2023-03-02T00:05:35.499Z,18.75
2023-03-02T00:08:06.973Z,18.73
2023-03-02T00:10:38.875Z,18.71
2023-03-02T00:13:09.678Z,18.67
2023-03-02T00:15:40.479Z,18.65
2023-03-02T00:18:11.503Z,18.62
2023-03-02T00:20:42.252Z,18.60
2023-03-02T00:23:13.855Z,18.59
2023-03-02T00:25:44.901Z,18.57
2023-03-02T00:28:15.636Z,18.56
2023-03-02T00:30:46.344Z,18.54
2023-03-02T00:33:17.318Z,18.52
2023-03-02T00:35:48.439Z,18.51
2023-03-02T00:38:19.526Z,18.50
2023-03-02T00:40:51.987Z,18.50
2023-03-02T00:43:27.415Z,18.48
2023-03-02T00:45:59.134Z,18.47
2023-03-02T00:48:29.831Z,18.47
2023-03-02T00:51:03.269Z,18.48
2023-03-02T00:53:34.464Z,18.47
2023-03-02T00:56:06.906Z,18.46
2023-03-02T00:58:38.284Z,18.45
2023-03-02T01:01:12.022Z,18.33
2023-03-02T01:03:43.156Z,18.40
2023-03-02T01:06:21.207Z,18.38
2023-03-02T01:08:54.111Z,18.38
2023-03-02T01:11:25.297Z,18.35
2023-03-02T01:13:56.008Z,18.33
2023-03-02T01:16:27.335Z,18.31
2023-03-02T01:18:58.187Z,18.30
2023-03-02T01:21:29.355Z,18.27
2023-03-02T01:24:00.004Z,18.26
2023-03-02T01:26:31.057Z,18.04
2023-03-02T01:29:02.166Z,18.23
2023-03-02T01:31:33.635Z,18.22
2023-03-02T01:34:04.502Z,18.16
2023-03-02T01:36:35.646Z,18.19
2023-03-02T01:39:06.591Z,18.19
2023-03-02T01:41:37.324Z,18.18
2023-03-02T01:44:11.104Z,18.08
2023-03-02T01:46:41.957Z,18.15
2023-03-02T01:49:16.420Z,18.14
2023-03-02T01:51:49.983Z,18.14
2023-03-02T01:54:24.015Z,18.16
2023-03-02T01:56:59.237Z,18.18
2023-03-02T01:59:32.872Z,18.18
2023-03-02T02:02:07.199Z,18.19
2023-03-02T02:04:41.322Z,18.18
2023-03-02T02:07:12.651Z,18.18
2023-03-02T02:09:48.061Z,18.18
2023-03-02T02:12:21.354Z,18.17
2023-03-02T02:14:52.738Z,18.16
2023-03-02T02:17:23.595Z,18.16
2023-03-02T02:20:07.205Z,18.17
2023-03-02T02:22:49.177Z,18.18
2023-03-02T02:25:34.158Z,18.19
2023-03-02T02:28:09.654Z,18.19
2023-03-02T02:30:43.356Z,18.17
2023-03-02T02:33:20.752Z,18.16
2023-03-02T02:35:54.056Z,18.15
2023-03-02T02:38:26.067Z,18.14
2023-03-02T02:40:59.656Z,18.14
2023-03-02T02:43:33.535Z,18.05
2023-03-02T02:46:05.051Z,18.11
2023-03-02T02:48:36.413Z,18.10
2023-03-02T02:51:10.400Z,18.09
2023-03-02T02:53:43.914Z,18.07
2023-03-02T02:56:16.627Z,18.06
2023-03-02T02:58:51.787Z,18.05
2023-03-02T03:01:26.295Z,18.02
2023-03-02T03:04:02.067Z,18.01
2023-03-02T03:06:38.514Z,17.98
2023-03-02T03:09:10.868Z,17.97
2023-03-02T03:11:44.948Z,17.97
2023-03-02T03:14:17.613Z,17.97
2023-03-02T03:16:50.762Z,17.96
2023-03-02T03:19:24.350Z,17.95
2023-03-02T03:21:57.481Z,17.93
2023-03-02T03:24:29.858Z,17.93
2023-03-02T03:27:02.038Z,17.94
2023-03-02T03:29:34.281Z,17.96
2023-03-02T03:32:06.952Z,17.94
2023-03-02T03:34:41.054Z,17.93
2023-03-02T03:37:13.899Z,17.92
2023-03-02T03:39:45.549Z,17.92
2023-03-02T03:42:16.720Z,17.91
2023-03-02T03:44:47.664Z,17.90
2023-03-02T03:47:18.400Z,17.89
2023-03-02T03:49:49.350Z,17.86
2023-03-02T03:52:30.516Z,17.85
2023-03-02T03:55:02.796Z,17.84
2023-03-02T03:57:33.480Z,17.82
2023-03-02T04:00:06.306Z,17.81
2023-03-02T04:02:37.141Z,17.79
2023-03-02T04:05:09.343Z,17.78
2023-03-02T04:07:41.436Z,17.78
2023-03-02T04:10:14.287Z,17.76
2023-03-02T04:12:45.621Z,17.75
2023-03-02T04:15:18.710Z,17.71
2023-03-02T04:17:50.171Z,17.76
2023-03-02T04:20:22.724Z,17.75
2023-03-02T04:22:55.740Z,17.75
2023-03-02T04:25:29.558Z,17.74
2023-03-02T04:28:00.382Z,17.75
2023-03-02T04:30:33.331Z,17.75
2023-03-02T04:33:04.357Z,17.74
2023-03-02T04:35:35.109Z,17.72
2023-03-02T04:38:06.107Z,17.70
2023-03-02T04:40:36.946Z,17.61
2023-03-02T04:43:07.636Z,17.68
2023-03-02T04:45:38.443Z,17.67
2023-03-02T04:48:10.085Z,17.64
2023-03-02T04:50:41.043Z,17.64
2023-03-02T04:53:12.425Z,17.63
2023-03-02T04:55:43.534Z,17.62
2023-03-02T04:58:14.265Z,17.63
2023-03-02T05:00:45.145Z,17.63
2023-03-02T05:03:15.945Z,17.62
2023-03-02T05:05:46.657Z,17.58
2023-03-02T05:08:17.783Z,17.61
2023-03-02T05:10:48.816Z,17.60
2023-03-02T05:13:20.287Z,17.61
2023-03-02T05:15:51.859Z,17.62
2023-03-02T05:18:23.339Z,17.65
2023-03-02T05:20:54.753Z,17.68
2023-03-02T05:23:27.150Z,17.71
2023-03-02T05:25:58.913Z,17.73
2023-03-02T05:28:30.076Z,17.70
2023-03-02T05:31:01.266Z,17.74
2023-03-02T05:33:32.338Z,17.74
2023-03-02T05:36:03.152Z,17.77
2023-03-02T05:38:34.634Z,17.79
2023-03-02T05:41:06.391Z,17.81
2023-03-02T05:43:37.308Z,17.85
2023-03-02T05:46:08.153Z,17.86
2023-03-02T05:48:39.160Z,17.93
2023-03-02T05:51:10.512Z,17.97
2023-03-02T05:53:41.326Z,17.99
2023-03-02T05:56:12.470Z,18.01
2023-03-02T05:58:43.222Z,17.85
2023-03-02T06:01:15.583Z,18.04
2023-03-02T06:03:46.429Z,18.05
2023-03-02T06:06:18.092Z,18.07
2023-03-02T06:08:48.722Z,18.07
2023-03-02T06:11:19.507Z,18.06
2023-03-02T06:13:50.310Z,18.11
2023-03-02T06:16:21.110Z,18.11
2023-03-02T06:18:52.102Z,18.12
2023-03-02T06:21:22.832Z,18.10
2023-03-02T06:23:54.179Z,18.15
2023-03-02T06:26:25.106Z,18.17
2023-03-02T06:28:56.182Z,18.17
2023-03-02T06:31:27.336Z,18.18
2023-03-02T06:33:58.061Z,18.20
2023-03-02T06:36:29.409Z,18.21
2023-03-02T06:39:00.152Z,18.22
2023-03-02T06:41:31.167Z,18.22
2023-03-02T06:44:02.233Z,18.23
2023-03-02T06:46:33.242Z,18.23
2023-03-02T06:49:04.859Z,18.23
2023-03-02T06:51:36.585Z,18.24
2023-03-02T06:54:08.969Z,18.24
2023-03-02T06:56:41.075Z,18.24
2023-03-02T06:59:11.878Z,18.24
2023-03-02T07:01:43.223Z,18.20
2023-03-02T07:04:14.239Z,18.19
2023-03-02T07:06:44.989Z,18.24
2023-03-02T07:09:15.949Z,18.21
2023-03-02T07:11:49.455Z,18.19
2023-03-02T07:14:20.821Z,18.21
2023-03-02T07:16:52.279Z,18.25
2023-03-02T07:19:23.303Z,18.24
2023-03-02T07:21:53.961Z,18.21
2023-03-02T07:24:24.777Z,18.23
2023-03-02T07:26:55.360Z,18.22
2023-03-02T07:29:26.261Z,18.21
2023-03-02T07:31:57.515Z,18.21
2023-03-02T07:34:28.957Z,18.20
2023-03-02T07:36:59.691Z,18.19
2023-03-02T07:39:30.429Z,18.19
2023-03-02T07:42:04.516Z,18.13
2023-03-02T07:44:35.895Z,18.17
2023-03-02T07:47:06.839Z,18.16
2023-03-02T07:49:37.525Z,18.16
2023-03-02T07:52:08.623Z,18.15
2023-03-02T07:54:39.903Z,18.09
2023-03-02T07:57:11.022Z,18.13
2023-03-02T07:59:41.862Z,18.12
2023-03-02T08:02:16.472Z,18.10
2023-03-02T08:04:47.219Z,18.05
2023-03-02T08:07:18.176Z,17.89
2023-03-02T08:09:49.114Z,18.07
2023-03-02T08:12:19.805Z,18.06
2023-03-02T08:14:51.479Z,18.05
2023-03-02T08:17:22.347Z,18.03
2023-03-02T08:19:53.166Z,17.96
2023-03-02T08:22:24.433Z,18.01
2023-03-02T08:24:55.391Z,18.01
2023-03-02T08:27:26.286Z,18.00
2023-03-02T08:29:57.917Z,17.95
2023-03-02T08:32:30.017Z,17.96
2023-03-02T08:35:01.136Z,17.94
2023-03-02T08:37:31.867Z,17.92
2023-03-02T08:40:02.912Z,17.90
2023-03-02T08:42:34.121Z,17.89
2023-03-02T08:45:05.469Z,17.86
2023-03-02T08:47:36.468Z,17.69
2023-03-02T08:50:08.024Z,17.84
2023-03-02T08:52:38.699Z,17.84
2023-03-02T08:55:12.111Z,17.84
2023-03-02T08:57:43.219Z,17.85
2023-03-02T09:00:16.615Z,17.82
2023-03-02T09:02:47.396Z,17.82
2023-03-02T09:05:18.344Z,17.81
2023-03-02T09:07:49.275Z,17.79
2023-03-02T09:10:20.787Z,17.77
2023-03-02T09:12:52.590Z,17.75
2023-03-02T09:15:23.332Z,17.75
2023-03-02T09:17:54.272Z,17.74
2023-03-02T09:20:25.216Z,17.75
2023-03-02T09:22:56.174Z,17.70
2023-03-02T09:25:27.286Z,17.73
2023-03-02T09:27:58.044Z,17.72
2023-03-02T09:30:29.102Z,17.66
2023-03-02T09:33:00.244Z,17.70
2023-03-02T09:35:31.430Z,17.69
2023-03-02T09:38:02.403Z,17.68
2023-03-02T09:40:39.729Z,17.66
2023-03-02T09:43:29.851Z,17.66
2023-03-02T09:46:15.126Z,17.66
2023-03-02T09:48:56.117Z,17.65
2023-03-02T09:51:37.354Z,17.65
2023-03-02T09:54:13.154Z,17.64
2023-03-02T09:56:48.151Z,17.65
2023-03-02T09:59:25.765Z,17.65
2023-03-02T10:02:01.465Z,17.65
2023-03-02T10:04:38.852Z,17.66
2023-03-02T10:07:17.579Z,17.65
2023-03-02T10:09:48.848Z,17.66
2023-03-02T10:12:43.910Z,17.67
2023-03-02T10:15:20.674Z,17.67
2023-03-02T10:18:02.083Z,17.65
2023-03-02T10:20:38.113Z,17.64
2023-03-02T10:23:23.085Z,17.59
2023-03-02T10:26:01.149Z,17.63
2023-03-02T10:28:39.839Z,17.62
2023-03-02T10:31:15.537Z,17.62
2023-03-02T10:33:46.283Z,17.56
2023-03-02T10:36:24.037Z,17.63
2023-03-02T10:38:56.626Z,17.65
2023-03-02T10:41:32.685Z,17.64
2023-03-02T10:44:07.571Z,17.64
2023-03-02T10:46:46.353Z,17.62
2023-03-02T10:49:30.718Z,17.63
2023-03-02T10:52:04.782Z,17.46
2023-03-02T10:54:34.689Z,17.61
2023-03-02T10:57:21.024Z,17.61
2023-03-02T10:59:53.325Z,17.59
2023-03-02T11:02:27.237Z,17.58
2023-03-02T11:05:00.043Z,17.57
2023-03-02T11:07:31.664Z,17.56
2023-03-02T11:10:09.558Z,17.50
2023-03-02T11:12:46.599Z,17.53
2023-03-02T11:15:42.217Z,17.54
2023-03-02T11:18:28.853Z,17.53
2023-03-02T11:21:03.334Z,17.35
2023-03-02T11:23:42.291Z,17.52
2023-03-02T11:26:22.196Z,17.54
2023-03-02T11:29:01.863Z,17.54
2023-03-02T11:31:40.428Z,17.56
2023-03-02T11:34:23.707Z,17.57
2023-03-02T11:37:03.466Z,17.57
2023-03-02T11:39:50.030Z,17.58
2023-03-02T11:42:31.339Z,17.57
2023-03-02T11:45:09.994Z,17.57
2023-03-02T11:47:43.259Z,17.56
2023-03-02T11:50:17.423Z,17.55
2023-03-02T11:52:52.817Z,17.56
2023-03-02T11:55:26.263Z,17.56
2023-03-02T12:00:40.288Z,17.55
2023-03-02T12:03:24.784Z,17.52
2023-03-02T12:06:07.460Z,17.59
2023-03-02T12:08:41.952Z,17.61
2023-03-02T12:11:34.842Z,17.64
2023-03-02T12:14:07.701Z,17.66
2023-03-02T12:16:41.330Z,17.67
2023-03-02T12:19:26.459Z,17.69
2023-03-02T12:22:05.413Z,17.70
2023-03-02T12:24:38.502Z,17.71
2023-03-02T12:27:25.738Z,17.71
2023-03-02T12:30:11.060Z,17.71
2023-03-02T12:32:42.048Z,17.69
2023-03-02T12:35:17.059Z,17.68
2023-03-02T12:37:51.948Z,17.67
2023-03-02T12:40:41.480Z,17.65
2023-03-02T12:43:36.069Z,17.67
2023-03-02T12:46:28.981Z,17.67
2023-03-02T12:49:27.233Z,17.67
2023-03-02T12:52:00.399Z,17.64
2023-03-02T12:54:33.608Z,17.67
2023-03-02T12:57:15.537Z,17.68
2023-03-02T12:59:52.101Z,17.64
2023-03-02T13:02:24.799Z,17.67
2023-03-02T13:05:00.664Z,17.67
2023-03-02T13:07:36.704Z,17.67
2023-03-02T13:10:21.878Z,17.69
2023-03-02T13:12:52.709Z,17.68
2023-03-02T13:15:23.654Z,17.71
2023-03-02T13:17:59.207Z,17.71
2023-03-02T13:20:31.263Z,17.72
2023-03-02T13:23:02.412Z,17.73
2023-03-02T13:25:33.960Z,17.73
2023-03-02T13:28:07.692Z,17.72
2023-03-02T13:30:47.756Z,17.71
2023-03-02T13:33:24.929Z,17.72
2023-03-02T13:35:56.478Z,17.73
2023-03-02T13:38:32.511Z,17.73
2023-03-02T13:41:04.043Z,17.73
2023-03-02T13:43:39.103Z,17.74
2023-03-02T13:46:29.356Z,17.73
2023-03-02T13:49:11.031Z,17.77
2023-03-02T13:51:43.982Z,17.78
2023-03-02T13:54:23.624Z,17.78
2023-03-02T13:56:55.172Z,17.77
2023-03-02T13:59:26.508Z,17.77
2023-03-02T14:01:57.264Z,17.77
2023-03-02T14:04:28.384Z,17.76
2023-03-02T14:06:59.252Z,17.75
2023-03-02T14:09:30.164Z,17.73
2023-03-02T14:12:01.435Z,17.71
2023-03-02T14:14:37.125Z,17.71
2023-03-02T14:17:16.730Z,17.69
2023-03-02T14:19:52.601Z,17.68
2023-03-02T14:22:24.866Z,17.66
2023-03-02T14:24:55.904Z,17.67
2023-03-02T14:27:30.673Z,17.67
2023-03-02T14:30:02.103Z,17.67
2023-03-02T14:32:32.936Z,17.66
2023-03-02T14:35:04.132Z,17.64
2023-03-02T14:37:35.133Z,17.64
2023-03-02T14:40:07.860Z,17.63
2023-03-02T14:42:38.528Z,17.62
2023-03-02T14:45:13.424Z,17.61
2023-03-02T14:47:44.402Z,17.60
2023-03-02T14:50:16.554Z,17.60
2023-03-02T14:52:49.739Z,17.60
2023-03-02T14:55:26.413Z,17.59
2023-03-02T14:58:00.173Z,17.59
2023-03-02T15:00:31.316Z,17.57
2023-03-02T15:03:02.590Z,17.60
2023-03-02T15:05:33.690Z,17.58
2023-03-02T15:08:04.745Z,17.57
2023-03-02T15:10:35.790Z,17.56
2023-03-02T15:13:06.936Z,17.54
2023-03-02T15:15:37.850Z,17.55
2023-03-02T15:18:09.147Z,17.56
2023-03-02T15:20:40.694Z,17.55
2023-03-02T15:23:11.650Z,17.55
2023-03-02T15:25:43.191Z,17.54
2023-03-02T15:28:14.019Z,17.56
2023-03-02T15:30:45.167Z,17.57
2023-03-02T15:33:16.212Z,17.57
2023-03-02T15:35:47.055Z,17.58
2023-03-02T15:38:18.124Z,17.59
2023-03-02T15:40:49.187Z,17.56
2023-03-02T15:43:20.091Z,17.61
2023-03-02T15:45:51.273Z,17.61
2023-03-02T15:48:22.373Z,17.61
2023-03-02T15:51:00.624Z,17.62
2023-03-02T15:53:36.712Z,17.63
2023-03-02T15:56:10.379Z,17.63
2023-03-02T15:58:41.614Z,17.62
2023-03-02T16:01:15.982Z,17.62
2023-03-02T16:03:47.159Z,17.64
2023-03-02T16:06:18.003Z,17.65
2023-03-02T16:08:49.165Z,17.65
2023-03-02T16:11:23.444Z,17.65
2023-03-02T16:13:54.671Z,17.65
2023-03-02T16:16:26.445Z,17.67
2023-03-02T16:18:58.410Z,17.69
2023-03-02T16:21:29.901Z,17.69
2023-03-02T16:24:04.027Z,17.69
2023-03-02T16:26:36.570Z,17.69
2023-03-02T16:29:09.182Z,17.65
2023-03-02T16:31:40.904Z,17.72
2023-03-02T16:34:12.336Z,17.71
2023-03-02T16:36:44.574Z,17.72
2023-03-02T16:39:15.887Z,17.73
2023-03-02T16:41:47.197Z,17.71
2023-03-02T16:44:18.105Z,17.73
2023-03-02T16:46:49.101Z,17.77
2023-03-02T16:49:19.912Z,17.80
2023-03-02T16:51:50.792Z,17.82
2023-03-02T16:54:22.076Z,17.82
2023-03-02T16:56:53.069Z,17.82
2023-03-02T16:59:24.099Z,17.84
2023-03-02T17:01:55.994Z,17.86
2023-03-02T17:04:26.846Z,17.88
2023-03-02T17:07:00.852Z,17.91
2023-03-02T17:09:32.529Z,17.94
2023-03-02T17:12:03.674Z,17.98
2023-03-02T17:14:34.943Z,18.03
2023-03-02T17:17:05.994Z,18.09
2023-03-02T17:19:37.248Z,18.11
2023-03-02T17:22:08.415Z,18.15
2023-03-02T17:24:39.692Z,18.18
2023-03-02T17:27:24.044Z,18.21
2023-03-02T17:29:56.769Z,18.24
2023-03-02T17:32:27.846Z,18.28
2023-03-02T17:34:59.389Z,18.33
2023-03-02T17:37:30.752Z,18.37
2023-03-02T17:40:01.775Z,18.42
2023-03-02T17:42:33.253Z,18.46
2023-03-02T17:45:04.452Z,18.50
2023-03-02T17:47:35.818Z,18.55
2023-03-02T17:50:10.255Z,18.59
2023-03-02T17:52:41.489Z,18.62
2023-03-02T17:55:14.160Z,18.65
2023-03-02T17:57:45.277Z,18.55
2023-03-02T18:00:21.617Z,18.74
2023-03-02T18:02:54.118Z,18.78
2023-03-02T18:05:26.142Z,18.79
2023-03-02T18:07:57.902Z,18.87
2023-03-02T18:10:30.858Z,18.92
2023-03-02T18:13:03.051Z,18.97
2023-03-02T18:15:34.818Z,19.00
2023-03-02T18:18:06.518Z,19.03
2023-03-02T18:20:38.381Z,19.06
2023-03-02T18:23:10.432Z,19.10
2023-03-02T18:25:41.819Z,19.14
2023-03-02T18:28:13.628Z,19.17
2023-03-02T18:30:45.794Z,19.20
2023-03-02T18:33:16.920Z,19.23
2023-03-02T18:35:48.481Z,19.14
2023-03-02T18:38:19.848Z,19.30
2023-03-02T18:40:51.319Z,19.32
2023-03-02T18:43:23.200Z,19.35
2023-03-02T18:45:57.498Z,19.37
2023-03-02T18:48:28.925Z,19.39
2023-03-02T18:51:01.843Z,19.42
2023-03-02T18:53:33.234Z,19.40
2023-03-02T18:56:05.492Z,19.46
2023-03-02T18:58:37.078Z,19.49
2023-03-02T19:01:09.933Z,19.52
2023-03-02T19:03:46.148Z,19.55
2023-03-02T19:06:20.842Z,19.57
2023-03-02T19:08:53.241Z,19.59
2023-03-02T19:11:26.007Z,19.61
2023-03-02T19:13:59.047Z,19.46
2023-03-02T19:16:31.302Z,19.68
2023-03-02T19:19:03.564Z,19.71
2023-03-02T19:21:35.859Z,19.72
2023-03-02T19:24:08.182Z,19.74
2023-03-02T19:26:39.225Z,19.78
2023-03-02T19:29:10.396Z,19.80
2023-03-02T19:31:42.410Z,19.82
2023-03-02T19:34:13.531Z,19.84
2023-03-02T19:36:44.765Z,19.84
2023-03-02T19:39:15.855Z,19.88
2023-03-02T19:41:46.911Z,19.89
2023-03-02T19:44:18.032Z,19.90
2023-03-02T19:46:50.009Z,19.92
2023-03-02T19:49:20.883Z,19.94
2023-03-02T19:51:52.390Z,19.97
2023-03-02T19:54:23.427Z,20.00
2023-03-02T19:56:54.597Z,20.01
2023-03-02T19:59:28.035Z,20.01
2023-03-02T20:01:59.641Z,20.03
2023-03-02T20:04:30.681Z,20.05
2023-03-02T20:07:02.927Z,20.01
2023-03-02T20:09:34.004Z,20.06
2023-03-02T20:12:06.197Z,20.08
2023-03-02T20:14:38.705Z,20.09
2023-03-02T20:17:09.891Z,20.12
2023-03-02T20:19:40.851Z,20.14
2023-03-02T20:22:12.325Z,20.14
2023-03-02T20:24:44.154Z,20.15
2023-03-02T20:27:15.517Z,20.15
2023-03-02T20:29:46.840Z,20.16
2023-03-02T20:32:18.621Z,20.18
2023-03-02T20:34:49.522Z,20.19
2023-03-02T20:37:22.657Z,20.20
2023-03-02T20:39:53.726Z,20.20
2023-03-02T20:42:25.005Z,20.21
2023-03-02T20:44:57.167Z,20.22
2023-03-02T20:47:28.270Z,20.23
2023-03-02T20:49:59.994Z,20.24
2023-03-02T20:52:31.106Z,20.25
2023-03-02T20:55:02.122Z,20.28
2023-03-02T20:57:33.291Z,20.30
2023-03-02T21:00:05.808Z,20.32
2023-03-02T21:02:37.121Z,20.33
2023-03-02T21:05:09.036Z,20.35
2023-03-02T21:07:39.908Z,20.36
2023-03-02T21:10:15.924Z,20.37
2023-03-02T21:12:49.141Z,20.33
2023-03-02T21:15:23.936Z,20.38
2023-03-02T21:17:55.240Z,20.39
2023-03-02T21:20:28.982Z,20.40
2023-03-02T21:23:00.643Z,20.40
2023-03-02T21:25:31.773Z,20.41
2023-03-02T21:28:03.099Z,20.40
2023-03-02T21:30:35.977Z,20.41
2023-03-02T21:33:07.385Z,20.40
2023-03-02T21:35:38.324Z,20.36
2023-03-02T21:38:09.755Z,20.34
2023-03-02T21:40:46.073Z,20.34
2023-03-02T21:43:18.549Z,20.34
2023-03-02T21:45:49.620Z,20.31
2023-03-02T21:48:22.946Z,20.34
2023-03-02T21:50:54.492Z,20.33
2023-03-02T21:53:25.411Z,20.32
2023-03-02T21:55:56.269Z,20.31
2023-03-02T21:58:27.310Z,20.30
2023-03-02T22:00:58.238Z,20.30
2023-03-02T22:03:29.305Z,20.26
2023-03-02T22:06:00.227Z,20.31
2023-03-02T22:08:31.627Z,20.31
2023-03-02T22:11:02.628Z,20.33
2023-03-02T22:13:35.539Z,20.33
2023-03-02T22:16:15.516Z,20.31
2023-03-02T22:18:47.575Z,20.28
2023-03-02T22:21:28.925Z,20.28
2023-03-02T22:24:10.992Z,20.28
2023-03-02T22:26:44.197Z,20.27
2023-03-02T22:29:19.046Z,20.27
2023-03-02T22:31:51.879Z,20.26
2023-03-02T22:34:27.076Z,20.27
2023-03-02T22:37:03.886Z,20.27
2023-03-02T22:39:36.060Z,20.27
2023-03-02T22:42:14.393Z,20.26
2023-03-02T22:44:45.410Z,20.26
2023-03-02T22:47:19.406Z,20.27
2023-03-02T22:49:58.304Z,20.28
2023-03-02T22:52:39.448Z,20.29
2023-03-02T22:55:32.100Z,20.27
2023-03-02T22:58:17.412Z,20.25
2023-03-02T23:00:49.125Z,20.24
2023-03-02T23:03:21.911Z,20.22
2023-03-02T23:05:54.101Z,20.20
2023-03-02T23:08:28.281Z,20.18
2023-03-02T23:11:00.519Z,20.16
2023-03-02T23:13:40.449Z,20.15
2023-03-02T23:16:15.778Z,20.15
2023-03-02T23:18:48.003Z,20.13
2023-03-02T23:21:28.560Z,20.10
2023-03-02T23:23:59.427Z,20.08
2023-03-02T23:26:30.270Z,20.07
2023-03-02T23:29:01.306Z,20.05
2023-03-02T23:31:32.591Z,20.03
2023-03-02T23:34:03.948Z,20.01
2023-03-02T23:36:34.968Z,19.99
2023-03-02T23:39:06.067Z,19.97
2023-03-02T23:41:38.633Z,19.96
2023-03-02T23:44:10.467Z,19.95
2023-03-02T23:46:41.132Z,19.81
2023-03-02T23:49:11.874Z,19.92
2023-03-02T23:51:43.643Z,19.89
2023-03-02T23:54:14.956Z,19.88
2023-03-02T23:56:45.928Z,19.87
2023-03-02T23:59:16.769Z,19.85
